sensor_id;sensor_type;location;lat;lon;timestamp;pressure;altitude;pressure_sealevel;temperature;humidity
53940;BME280;39850;43.324;21.916;2023-06-22T00:17:53;994.0;;;19.8;87.0
53940;BME280;39850;43.324;21.916;2023-06-22T00:22:30;994.0;;;19.8;87.0
53940;BME280;39850;43.324;21.916;2023-06-22T00:27:06;994.0;;;19.9;87.0
53940;BME280;39850;43.324;21.916;2023-06-22T00:31:43;994.0;;;19.9;87.0
53940;BME280;39850;43.324;21.916;2023-06-22T00:36:20;995.0;;;19.9;87.0
53940;BME280;39850;43.324;21.916;2023-06-22T00:40:56;995.0;;;19.9;87.0
53940;BME280;39850;43.324;21.916;2023-06-22T00:45:33;995.0;;;20.0;87.0
53940;BME280;39850;43.324;21.916;2023-06-22T00:50:25;995.0;;;20.0;87.0
53940;BME280;39850;43.324;21.916;2023-06-22T00:55:06;995.0;;;19.9;87.0
53940;BME280;39850;43.324;21.916;2023-06-22T00:59:48;995.0;;;19.9;87.0
53940;BME280;39850;43.324;21.916;2023-06-22T01:34:42;995.0;;;18.9;89.0
53940;BME280;39850;43.324;21.916;2023-06-22T01:39:23;995.0;;;18.9;89.0
53940;BME280;39850;43.324;21.916;2023-06-22T01:44:06;995.0;;;19.0;89.0
53940;BME280;39850;43.324;21.916;2023-06-22T01:48:45;995.0;;;19.0;89.0
53940;BME280;39850;43.324;21.916;2023-06-22T01:53:22;995.0;;;19.0;89.0
53940;BME280;39850;43.324;21.916;2023-06-22T01:58:01;995.0;;;19.1;90.0
53940;BME280;39850;43.324;21.916;2023-06-22T02:03:03;995.0;;;19.1;90.0
53940;BME280;39850;43.324;21.916;2023-06-22T02:08:12;995.0;;;19.1;90.0
53940;BME280;39850;43.324;21.916;2023-06-22T02:13:06;995.0;;;19.1;90.0
53940;BME280;39850;43.324;21.916;2023-06-22T02:17:48;995.0;;;19.1;91.0
53940;BME280;39850;43.324;21.916;2023-06-22T02:22:25;995.0;;;19.1;91.0
53940;BME280;39850;43.324;21.916;2023-06-22T02:54:47;995.0;;;18.4;91.0
53940;BME280;39850;43.324;21.916;2023-06-22T02:59:23;995.0;;;18.4;91.0
53940;BME280;39850;43.324;21.916;2023-06-22T03:04:00;995.0;;;18.4;91.0
53940;BME280;39850;43.324;21.916;2023-06-22T03:08:36;995.0;;;18.2;91.0
53940;BME280;39850;43.324;21.916;2023-06-22T03:13:13;995.0;;;18.2;91.0
53940;BME280;39850;43.324;21.916;2023-06-22T03:17:49;995.0;;;18.3;91.0
53940;BME280;39850;43.324;21.916;2023-06-22T03:22:26;995.0;;;18.3;91.0
53940;BME280;39850;43.324;21.916;2023-06-22T03:27:05;995.0;;;18.2;91.0
53940;BME280;39850;43.324;21.916;2023-06-22T03:31:42;995.0;;;18.2;91.0
53940;BME280;39850;43.324;21.916;2023-06-22T03:36:19;995.0;;;18.3;91.0
53940;BME280;39850;43.324;21.916;2023-06-22T03:40:56;995.0;;;18.3;91.0
53940;BME280;39850;43.324;21.916;2023-06-22T04:17:51;996.0;;;19.8;88.0
53940;BME280;39850;43.324;21.916;2023-06-22T04:22:28;996.0;;;19.8;88.0
53940;BME280;39850;43.324;21.916;2023-06-22T04:27:06;996.0;;;19.8;87.0
53940;BME280;39850;43.324;21.916;2023-06-22T04:31:43;996.0;;;19.8;87.0
53940;BME280;39850;43.324;21.916;2023-06-22T04:36:19;996.0;;;19.9;86.0
53940;BME280;39850;43.324;21.916;2023-06-22T04:40:56;996.0;;;19.9;86.0
53940;BME280;39850;43.324;21.916;2023-06-22T04:45:34;996.0;;;20.0;85.0
53940;BME280;39850;43.324;21.916;2023-06-22T04:50:11;996.0;;;20.0;85.0
53940;BME280;39850;43.324;21.916;2023-06-22T04:54:49;996.0;;;20.1;84.0
53940;BME280;39850;43.324;21.916;2023-06-22T04:59:31;996.0;;;20.1;84.0
53940;BME280;39850;43.324;21.916;2023-06-22T05:04:08;996.0;;;20.1;84.0
53940;BME280;39850;43.324;21.916;2023-06-22T05:36:24;996.0;;;23.0;75.0
53940;BME280;39850;43.324;21.916;2023-06-22T05:41:00;996.0;;;23.0;75.0
53940;BME280;39850;43.324;21.916;2023-06-22T05:45:37;996.0;;;23.4;74.0
53940;BME280;39850;43.324;21.916;2023-06-22T05:50:13;996.0;;;23.4;74.0
53940;BME280;39850;43.324;21.916;2023-06-22T05:54:50;996.0;;;23.7;72.0
53940;BME280;39850;43.324;21.916;2023-06-22T05:59:26;996.0;;;23.7;72.0
53940;BME280;39850;43.324;21.916;2023-06-22T06:04:04;996.0;;;23.7;72.0
53940;BME280;39850;43.324;21.916;2023-06-22T06:08:42;996.0;;;23.8;72.0
53940;BME280;39850;43.324;21.916;2023-06-22T06:13:18;996.0;;;23.8;72.0
53940;BME280;39850;43.324;21.916;2023-06-22T06:17:55;996.0;;;23.9;71.0
53940;BME280;39850;43.324;21.916;2023-06-22T06:22:31;996.0;;;23.9;71.0
53940;BME280;39850;43.324;21.916;2023-06-22T06:59:26;996.0;;;26.7;62.0
53940;BME280;39850;43.324;21.916;2023-06-22T07:04:04;996.0;;;26.7;62.0
53940;BME280;39850;43.324;21.916;2023-06-22T07:08:40;996.0;;;27.0;60.0
53940;BME280;39850;43.324;21.916;2023-06-22T07:13:17;996.0;;;27.0;60.0
53940;BME280;39850;43.324;21.916;2023-06-22T07:17:54;996.0;;;27.4;59.0
53940;BME280;39850;43.324;21.916;2023-06-22T07:22:30;996.0;;;27.4;59.0
53940;BME280;39850;43.324;21.916;2023-06-22T07:27:07;996.0;;;27.8;59.0
53940;BME280;39850;43.324;21.916;2023-06-22T07:31:46;996.0;;;27.8;59.0
53940;BME280;39850;43.324;21.916;2023-06-22T07:36:29;995.0;;;28.2;59.0
53940;BME280;39850;43.324;21.916;2023-06-22T07:41:06;995.0;;;28.2;59.0
53940;BME280;39850;43.324;21.916;2023-06-22T08:18:08;995.0;;;28.0;56.0
53940;BME280;39850;43.324;21.916;2023-06-22T08:22:44;995.0;;;28.0;56.0
53940;BME280;39850;43.324;21.916;2023-06-22T08:27:21;995.0;;;28.4;55.0
53940;BME280;39850;43.324;21.916;2023-06-22T08:31:58;995.0;;;28.4;55.0
53940;BME280;39850;43.324;21.916;2023-06-22T08:36:34;995.0;;;28.9;54.0
53940;BME280;39850;43.324;21.916;2023-06-22T08:41:11;995.0;;;28.9;54.0
53940;BME280;39850;43.324;21.916;2023-06-22T08:45:49;995.0;;;29.0;54.0
53940;BME280;39850;43.324;21.916;2023-06-22T08:50:26;995.0;;;29.0;54.0
53940;BME280;39850;43.324;21.916;2023-06-22T08:55:07;995.0;;;29.0;54.0
53940;BME280;39850;43.324;21.916;2023-06-22T08:59:45;995.0;;;29.1;53.0
53940;BME280;39850;43.324;21.916;2023-06-22T09:04:23;995.0;;;29.1;53.0
53940;BME280;39850;43.324;21.916;2023-06-22T09:36:45;995.0;;;29.0;51.0
53940;BME280;39850;43.324;21.916;2023-06-22T09:41:23;995.0;;;29.0;51.0
53940;BME280;39850;43.324;21.916;2023-06-22T09:46:00;995.0;;;29.0;50.0
53940;BME280;39850;43.324;21.916;2023-06-22T09:50:37;995.0;;;29.0;50.0
53940;BME280;39850;43.324;21.916;2023-06-22T09:55:15;995.0;;;29.0;50.0
53940;BME280;39850;43.324;21.916;2023-06-22T09:59:52;995.0;;;29.0;50.0
53940;BME280;39850;43.324;21.916;2023-06-22T10:04:29;995.0;;;29.0;50.0
53940;BME280;39850;43.324;21.916;2023-06-22T10:09:07;995.0;;;29.1;50.0
53940;BME280;39850;43.324;21.916;2023-06-22T10:13:44;995.0;;;29.1;50.0
53940;BME280;39850;43.324;21.916;2023-06-22T10:18:22;995.0;;;29.2;50.0
53940;BME280;39850;43.324;21.916;2023-06-22T10:22:59;995.0;;;29.2;50.0
53940;BME280;39850;43.324;21.916;2023-06-22T10:59:51;994.0;;;29.0;50.0
53940;BME280;39850;43.324;21.916;2023-06-22T11:04:28;994.0;;;29.0;50.0
53940;BME280;39850;43.324;21.916;2023-06-22T11:09:05;994.0;;;29.0;50.0
53940;BME280;39850;43.324;21.916;2023-06-22T11:13:41;994.0;;;29.0;50.0
53940;BME280;39850;43.324;21.916;2023-06-22T11:18:18;994.0;;;29.0;50.0
53940;BME280;39850;43.324;21.916;2023-06-22T11:22:55;994.0;;;29.0;50.0
53940;BME280;39850;43.324;21.916;2023-06-22T11:27:33;994.0;;;29.0;50.0
53940;BME280;39850;43.324;21.916;2023-06-22T11:32:10;994.0;;;29.0;50.0
53940;BME280;39850;43.324;21.916;2023-06-22T11:36:47;994.0;;;29.1;51.0
53940;BME280;39850;43.324;21.916;2023-06-22T11:41:24;994.0;;;29.1;51.0
53940;BME280;39850;43.324;21.916;2023-06-22T12:27:38;994.0;;;29.1;51.0
53940;BME280;39850;43.324;21.916;2023-06-22T12:32:15;994.0;;;29.1;51.0
53940;BME280;39850;43.324;21.916;2023-06-22T12:36:52;994.0;;;29.1;51.0
53940;BME280;39850;43.324;21.916;2023-06-22T12:41:28;994.0;;;29.1;51.0
53940;BME280;39850;43.324;21.916;2023-06-22T12:46:05;994.0;;;29.1;51.0
53940;BME280;39850;43.324;21.916;2023-06-22T12:50:42;994.0;;;29.1;51.0
53940;BME280;39850;43.324;21.916;2023-06-22T12:55:20;994.0;;;29.1;51.0
53940;BME280;39850;43.324;21.916;2023-06-22T12:59:56;994.0;;;29.1;52.0
53940;BME280;39850;43.324;21.916;2023-06-22T13:04:33;994.0;;;29.1;52.0
53940;BME280;39850;43.324;21.916;2023-06-22T13:36:49;993.0;;;28.0;55.0
53940;BME280;39850;43.324;21.916;2023-06-22T13:41:26;993.0;;;28.0;55.0
53940;BME280;39850;43.324;21.916;2023-06-22T13:46:03;993.0;;;28.0;55.0
53940;BME280;39850;43.324;21.916;2023-06-22T13:50:39;993.0;;;28.0;56.0
53940;BME280;39850;43.324;21.916;2023-06-22T13:55:16;993.0;;;28.0;56.0
53940;BME280;39850;43.324;21.916;2023-06-22T13:59:53;993.0;;;28.0;56.0
53940;BME280;39850;43.324;21.916;2023-06-22T14:04:30;993.0;;;28.0;56.0
53940;BME280;39850;43.324;21.916;2023-06-22T14:09:07;993.0;;;28.0;56.0
53940;BME280;39850;43.324;21.916;2023-06-22T14:13:43;993.0;;;28.0;56.0
53940;BME280;39850;43.324;21.916;2023-06-22T14:18:20;993.0;;;28.0;56.0
53940;BME280;39850;43.324;21.916;2023-06-22T14:22:57;993.0;;;28.0;56.0
53940;BME280;39850;43.324;21.916;2023-06-22T14:59:50;993.0;;;27.7;53.0
53940;BME280;39850;43.324;21.916;2023-06-22T15:04:27;993.0;;;27.7;53.0
53940;BME280;39850;43.324;21.916;2023-06-22T15:09:03;993.0;;;27.4;54.0
53940;BME280;39850;43.324;21.916;2023-06-22T15:13:42;993.0;;;27.4;54.0
53940;BME280;39850;43.324;21.916;2023-06-22T15:18:19;993.0;;;27.1;54.0
53940;BME280;39850;43.324;21.916;2023-06-22T15:22:58;993.0;;;27.1;54.0
53940;BME280;39850;43.324;21.916;2023-06-22T15:27:35;993.0;;;27.1;55.0
53940;BME280;39850;43.324;21.916;2023-06-22T15:32:12;993.0;;;27.1;55.0
53940;BME280;39850;43.324;21.916;2023-06-22T15:36:49;993.0;;;27.1;55.0
53940;BME280;39850;43.324;21.916;2023-06-22T15:41:26;993.0;;;27.1;55.0
53940;BME280;39850;43.324;21.916;2023-06-22T15:46:02;993.0;;;27.1;55.0
53940;BME280;39850;43.324;21.916;2023-06-22T16:18:21;993.0;;;28.2;56.0
53940;BME280;39850;43.324;21.916;2023-06-22T16:22:58;993.0;;;28.2;56.0
53940;BME280;39850;43.324;21.916;2023-06-22T16:27:34;993.0;;;27.9;57.0
53940;BME280;39850;43.324;21.916;2023-06-22T16:32:11;993.0;;;27.9;57.0
53940;BME280;39850;43.324;21.916;2023-06-22T16:36:48;993.0;;;27.9;57.0
53940;BME280;39850;43.324;21.916;2023-06-22T16:41:25;993.0;;;27.6;58.0
53940;BME280;39850;43.324;21.916;2023-06-22T16:46:01;993.0;;;27.6;58.0
53940;BME280;39850;43.324;21.916;2023-06-22T16:50:38;993.0;;;27.4;58.0
53940;BME280;39850;43.324;21.916;2023-06-22T16:55:15;993.0;;;27.4;58.0
53940;BME280;39850;43.324;21.916;2023-06-22T16:59:53;993.0;;;27.3;59.0
53940;BME280;39850;43.324;21.916;2023-06-22T17:04:38;993.0;;;27.3;59.0
53940;BME280;39850;43.324;21.916;2023-06-22T17:37:25;993.0;;;27.3;66.0
53940;BME280;39850;43.324;21.916;2023-06-22T17:42:08;993.0;;;27.3;66.0
53940;BME280;39850;43.324;21.916;2023-06-22T17:46:45;993.0;;;27.3;66.0
53940;BME280;39850;43.324;21.916;2023-06-22T17:51:22;993.0;;;26.8;66.0
53940;BME280;39850;43.324;21.916;2023-06-22T17:56:00;993.0;;;26.8;66.0
53940;BME280;39850;43.324;21.916;2023-06-22T18:00:40;993.0;;;26.3;66.0
53940;BME280;39850;43.324;21.916;2023-06-22T18:05:30;993.0;;;26.3;66.0
53940;BME280;39850;43.324;21.916;2023-06-22T18:10:10;993.0;;;26.2;67.0
53940;BME280;39850;43.324;21.916;2023-06-22T18:14:49;993.0;;;26.2;67.0
53940;BME280;39850;43.324;21.916;2023-06-22T18:19:32;993.0;;;26.2;67.0
53940;BME280;39850;43.324;21.916;2023-06-22T18:24:18;993.0;;;26.2;67.0
53940;BME280;39850;43.324;21.916;2023-06-22T19:01:53;993.0;;;24.9;73.0
53940;BME280;39850;43.324;21.916;2023-06-22T19:06:55;993.0;;;24.9;73.0
53940;BME280;39850;43.324;21.916;2023-06-22T19:11:32;993.0;;;24.7;73.0
53940;BME280;39850;43.324;21.916;2023-06-22T19:16:09;993.0;;;24.7;73.0
53940;BME280;39850;43.324;21.916;2023-06-22T19:20:53;993.0;;;24.5;73.0
53940;BME280;39850;43.324;21.916;2023-06-22T19:25:44;993.0;;;24.5;73.0
53940;BME280;39850;43.324;21.916;2023-06-22T19:30:24;994.0;;;24.4;72.0
53940;BME280;39850;43.324;21.916;2023-06-22T19:35:09;994.0;;;24.4;72.0
53940;BME280;39850;43.324;21.916;2023-06-22T19:39:45;994.0;;;24.4;72.0
53940;BME280;39850;43.324;21.916;2023-06-22T19:44:22;994.0;;;24.4;72.0
53940;BME280;39850;43.324;21.916;2023-06-22T20:21:40;994.0;;;23.7;73.0
53940;BME280;39850;43.324;21.916;2023-06-22T20:26:18;994.0;;;23.7;73.0
53940;BME280;39850;43.324;21.916;2023-06-22T20:31:09;994.0;;;23.4;74.0
53940;BME280;39850;43.324;21.916;2023-06-22T20:35:45;994.0;;;23.4;74.0
53940;BME280;39850;43.324;21.916;2023-06-22T20:40:25;994.0;;;23.1;75.0
53940;BME280;39850;43.324;21.916;2023-06-22T20:45:06;994.0;;;23.1;75.0
53940;BME280;39850;43.324;21.916;2023-06-22T20:49:43;994.0;;;22.9;76.0
53940;BME280;39850;43.324;21.916;2023-06-22T20:54:21;994.0;;;22.9;76.0
53940;BME280;39850;43.324;21.916;2023-06-22T20:58:58;993.0;;;22.7;77.0
53940;BME280;39850;43.324;21.916;2023-06-22T21:03:34;993.0;;;22.7;77.0
53940;BME280;39850;43.324;21.916;2023-06-22T21:40:31;993.0;;;22.2;79.0
53940;BME280;39850;43.324;21.916;2023-06-22T21:45:10;993.0;;;22.2;79.0
53940;BME280;39850;43.324;21.916;2023-06-22T21:49:46;993.0;;;22.0;79.0
53940;BME280;39850;43.324;21.916;2023-06-22T21:54:23;993.0;;;22.0;79.0
53940;BME280;39850;43.324;21.916;2023-06-22T21:58:59;993.0;;;21.8;80.0
53940;BME280;39850;43.324;21.916;2023-06-22T22:03:36;993.0;;;21.8;80.0
53940;BME280;39850;43.324;21.916;2023-06-22T22:08:13;993.0;;;21.8;80.0
53940;BME280;39850;43.324;21.916;2023-06-22T22:12:52;993.0;;;21.8;80.0
53940;BME280;39850;43.324;21.916;2023-06-22T22:17:29;993.0;;;21.8;80.0
53940;BME280;39850;43.324;21.916;2023-06-22T22:22:06;993.0;;;21.8;80.0
53940;BME280;39850;43.324;21.916;2023-06-22T22:26:43;993.0;;;21.8;80.0
53940;BME280;39850;43.324;21.916;2023-06-22T22:59:01;993.0;;;20.8;83.0
53940;BME280;39850;43.324;21.916;2023-06-22T23:03:38;993.0;;;20.8;83.0
53940;BME280;39850;43.324;21.916;2023-06-22T23:08:15;993.0;;;20.8;83.0
53940;BME280;39850;43.324;21.916;2023-06-22T23:12:51;993.0;;;20.8;83.0
53940;BME280;39850;43.324;21.916;2023-06-22T23:17:28;993.0;;;20.8;83.0
53940;BME280;39850;43.324;21.916;2023-06-22T23:22:06;993.0;;;20.8;83.0
53940;BME280;39850;43.324;21.916;2023-06-22T23:26:42;993.0;;;20.8;83.0
53940;BME280;39850;43.324;21.916;2023-06-22T23:31:19;993.0;;;20.8;84.0
53940;BME280;39850;43.324;21.916;2023-06-22T23:35:56;993.0;;;20.8;84.0
53940;BME280;39850;43.324;21.916;2023-06-22T23:40:33;993.0;;;20.8;84.0
53940;BME280;39850;43.324;21.916;2023-06-22T23:45:10;993.0;;;20.8;84.0
